Huvudsida
METAR-TAF:

METAR-TAF

Flygplatser :

Hafar Al-Batin, Saudiarabien

latitud: 27-54N, longitud: 045-32E, höjd: 413 m

METAR: saknas

Tid: 06:54 (03:54 UTC)

Väderprognos

Denna rapport gjordes för 22 timmar och 54 minuter sedan, klockan 05:00 UTC
Prognos gäller från 18 kl. 06 UTC till 18 kl. 20 UTC
Vind 10 kt från nord/nordost
Sikt: 7000 m
Spridda moln på en höjd av 4000 ft
Brutna moln på en höjd av 10000 ft
Blir
från 18 kl. 06 UTC till 18 kl. 08 UTC
Vind 8 kt från ost/sydost i byarna ända upp till 18 kt
Temporärt
från 18 kl. 06 UTC till 18 kl. 16 UTC
Sikt: 3500 m
utbrett stoft, högt damm drev

TAF: OEKK 180500Z 1806/1820 03010KT 7000 SCT040 BKN100 BECMG 1806/1808 12008G18KT TEMPO 1806/1816 3500 DU BLDU

Aktuella väderrapporter och prognoser från 4000 flygplatser (METAR- och TAF-rapporter).

De tillgängliga stationerna syns som gula och röda prickar på kartan.

För musen över prickarna för att se namnen på stationerna.

Klicka sedan för att få väderrapporter och prognoser.

För att ändra kartan: Klicka på de gröna knapparna med ett svart kors på för att zooma in; den gröna knappen med ett streck på för att zooma ut; eller på de gröna pilarna för angränsande kartor.


METAR-TAF: